Gem Village, Colorado
Current Conditions -  °F | °C
As of 6:53 AM on Monday 20 Oct 2014 (Local Time) from KDRO Reporting Station
Clear Clear  
Wind Chill: 39°   Ceiling: Unl
Heat Index: 39°   Visibility: 10mi
Dew Point: 37°   Wind: 3mph
Humidity: 93%   Direction: 40°NE
Pressure: 30.23"   Gusts: NA
Location:  37.3933°N, 107.574°W
Report Text: KDRO 201253Z AUTO 04003KT 10SM CLR 04/03 A3023 RMK AO2 SLP216 T00390028
Loading
Personal Weather Stations






























Interactive Weather Map
Tropical Storm Tracking
New forecast layout! Learn more

10-Day Weather Forecast

Advertisements
Track Severe Weather on mobile